sensor_id;sensor_type;location;lat;lon;timestamp;pressure;altitude;pressure_sealevel;temperature;humidity
9444;BME280;4760;42.148;24.754;2022-09-20T00:01:21;99446.44;;;15.64;88.04
9444;BME280;4760;42.148;24.754;2022-09-20T00:15:18;99449.25;;;15.61;88.70
9444;BME280;4760;42.148;24.754;2022-09-20T00:25:33;99445.13;;;15.72;87.59
9444;BME280;4760;42.148;24.754;2022-09-20T00:35:21;99436.91;;;15.62;87.68
9444;BME280;4760;42.148;24.754;2022-09-20T00:45:36;99429.75;;;15.64;87.97
9444;BME280;4760;42.148;24.754;2022-09-20T01:21:39;99425.59;;;15.08;94.62
9444;BME280;4760;42.148;24.754;2022-09-20T01:31:53;99428.78;;;15.10;94.76
9444;BME280;4760;42.148;24.754;2022-09-20T01:41:46;99420.13;;;15.01;94.74
9444;BME280;4760;42.148;24.754;2022-09-20T02:27:57;99445.59;;;14.52;95.65
9444;BME280;4760;42.148;24.754;2022-09-20T02:42:19;99449.94;;;14.53;92.14
9444;BME280;4760;42.148;24.754;2022-09-20T02:52:31;99462.03;;;14.25;94.40
9444;BME280;4760;42.148;24.754;2022-09-20T03:02:26;99471.97;;;14.15;92.44
9444;BME280;4760;42.148;24.754;2022-09-20T03:23:23;99491.53;;;13.90;95.01
9444;BME280;4760;42.148;24.754;2022-09-20T03:33:28;99491.91;;;13.96;95.20
9444;BME280;4760;42.148;24.754;2022-09-20T03:50:50;99475.00;;;13.69;95.51
9444;BME280;4760;42.148;24.754;2022-09-20T04:00:54;99499.16;;;13.65;96.55
9444;BME280;4760;42.148;24.754;2022-09-20T04:15:19;99509.88;;;13.63;98.69
9444;BME280;4760;42.148;24.754;2022-09-20T04:25:37;99531.13;;;13.91;97.75
9444;BME280;4760;42.148;24.754;2022-09-20T04:35:42;99521.91;;;14.15;96.48
9444;BME280;4760;42.148;24.754;2022-09-20T05:32:17;99497.78;;;18.84;64.71
9444;BME280;4760;42.148;24.754;2022-09-20T06:37:36;99599.81;;;17.31;73.32
9444;BME280;4760;42.148;24.754;2022-09-20T06:47:44;99618.53;;;17.53;70.53
9444;BME280;4760;42.148;24.754;2022-09-20T06:57:35;99624.75;;;17.84;67.21
9444;BME280;4760;42.148;24.754;2022-09-20T07:07:24;99630.47;;;19.73;59.54
9444;BME280;4760;42.148;24.754;2022-09-20T07:17:14;99626.91;;;21.35;50.80
9444;BME280;4760;42.148;24.754;2022-09-20T07:27:26;99628.69;;;20.65;51.91
9444;BME280;4760;42.148;24.754;2022-09-20T07:37:41;99636.41;;;19.91;53.23
9444;BME280;4760;42.148;24.754;2022-09-20T07:47:29;99632.25;;;20.53;53.13
9444;BME280;4760;42.148;24.754;2022-09-20T07:57:24;99625.91;;;20.78;53.52
9444;BME280;4760;42.148;24.754;2022-09-20T08:07:12;99619.97;;;21.27;50.94
9444;BME280;4760;42.148;24.754;2022-09-20T08:17:26;99623.88;;;21.16;50.75
9444;BME280;4760;42.148;24.754;2022-09-20T08:27:18;99604.81;;;21.11;50.48
9444;BME280;4760;42.148;24.754;2022-09-20T08:37:10;99576.13;;;20.95;51.16
9444;BME280;4760;42.148;24.754;2022-09-20T08:47:24;99586.63;;;21.16;53.45
9444;BME280;4760;42.148;24.754;2022-09-20T08:57:17;99554.78;;;21.10;49.39
9444;BME280;4760;42.148;24.754;2022-09-20T09:07:33;99560.38;;;21.57;49.89
9444;BME280;4760;42.148;24.754;2022-09-20T09:17:25;99554.22;;;21.84;48.28
9444;BME280;4760;42.148;24.754;2022-09-20T09:27:14;99552.56;;;21.73;48.99
9444;BME280;4760;42.148;24.754;2022-09-20T09:37:30;99542.19;;;21.96;48.03
9444;BME280;4760;42.148;24.754;2022-09-20T09:47:25;99525.81;;;21.82;46.54
9444;BME280;4760;42.148;24.754;2022-09-20T09:57:41;99531.00;;;22.05;45.97
9444;BME280;4760;42.148;24.754;2022-09-20T10:07:43;99530.69;;;22.03;45.00
9444;BME280;4760;42.148;24.754;2022-09-20T10:32:23;99516.47;;;22.28;44.90
9444;BME280;4760;42.148;24.754;2022-09-20T10:42:39;99502.22;;;22.23;41.93
9444;BME280;4760;42.148;24.754;2022-09-20T11:21:36;99459.09;;;22.38;42.03
9444;BME280;4760;42.148;24.754;2022-09-20T11:31:30;99457.47;;;22.28;40.33
9444;BME280;4760;42.148;24.754;2022-09-20T12:06:36;99430.47;;;22.31;40.37
9444;BME280;4760;42.148;24.754;2022-09-20T12:16:41;99429.44;;;22.37;40.09
9444;BME280;4760;42.148;24.754;2022-09-20T12:26:40;99437.22;;;22.33;39.27
9444;BME280;4760;42.148;24.754;2022-09-20T12:36:30;99423.63;;;22.32;38.74
9444;BME280;4760;42.148;24.754;2022-09-20T13:11:39;99398.50;;;22.28;38.87
9444;BME280;4760;42.148;24.754;2022-09-20T13:35:52;99390.28;;;22.03;38.28
9444;BME280;4760;42.148;24.754;2022-09-20T13:45:42;99397.44;;;21.95;38.96
9444;BME280;4760;42.148;24.754;2022-09-20T13:55:33;99407.47;;;21.83;37.46
9444;BME280;4760;42.148;24.754;2022-09-20T14:05:26;99413.53;;;21.82;38.39
9444;BME280;4760;42.148;24.754;2022-09-20T14:15:20;99421.88;;;21.63;38.37
9444;BME280;4760;42.148;24.754;2022-09-20T14:40:20;99423.50;;;21.30;38.91
9444;BME280;4760;42.148;24.754;2022-09-20T14:50:33;99429.50;;;21.19;40.72
9444;BME280;4760;42.148;24.754;2022-09-20T15:00:22;99427.09;;;21.31;40.41
9444;BME280;4760;42.148;24.754;2022-09-20T15:10:33;99428.19;;;21.33;39.47
9444;BME280;4760;42.148;24.754;2022-09-20T15:20:22;99425.50;;;20.95;42.07
9444;BME280;4760;42.148;24.754;2022-09-20T15:30:37;99442.63;;;20.63;46.00
9444;BME280;4760;42.148;24.754;2022-09-20T15:40:28;99437.72;;;20.54;47.89
9444;BME280;4760;42.148;24.754;2022-09-20T15:50:18;99450.69;;;20.10;48.92
9444;BME280;4760;42.148;24.754;2022-09-20T16:00:34;99461.09;;;19.97;49.97
9444;BME280;4760;42.148;24.754;2022-09-20T16:10:22;99469.13;;;19.70;50.84
9444;BME280;4760;42.148;24.754;2022-09-20T17:47:21;99575.09;;;17.95;57.81
9444;BME280;4760;42.148;24.754;2022-09-20T18:19:19;99603.78;;;16.83;70.22
9444;BME280;4760;42.148;24.754;2022-09-20T18:36:11;99612.13;;;16.83;67.77
9444;BME280;4760;42.148;24.754;2022-09-20T18:46:01;99625.28;;;16.49;77.50
9444;BME280;4760;42.148;24.754;2022-09-20T19:53:43;99642.38;;;16.51;79.23
9444;BME280;4760;42.148;24.754;2022-09-20T20:21:57;99646.13;;;16.37;74.17
9444;BME280;4760;42.148;24.754;2022-09-20T20:28:32;99653.53;;;16.51;74.10
9444;BME280;4760;42.148;24.754;2022-09-20T20:38:36;99646.91;;;16.38;70.98
9444;BME280;4760;42.148;24.754;2022-09-20T20:59:27;99655.94;;;16.15;74.45
9444;BME280;4760;42.148;24.754;2022-09-20T21:30:34;99659.28;;;15.99;73.94
9444;BME280;4760;42.148;24.754;2022-09-20T21:44:09;99653.78;;;15.96;76.12
9444;BME280;4760;42.148;24.754;2022-09-20T21:54:25;99658.66;;;15.85;75.80
9444;BME280;4760;42.148;24.754;2022-09-20T22:04:37;99663.16;;;15.71;76.20
9444;BME280;4760;42.148;24.754;2022-09-20T22:14:25;99661.06;;;15.83;76.78
9444;BME280;4760;42.148;24.754;2022-09-20T22:39:25;99657.28;;;15.14;78.01
9444;BME280;4760;42.148;24.754;2022-09-20T22:45:32;99648.44;;;15.26;77.61
9444;BME280;4760;42.148;24.754;2022-09-20T22:55:25;99650.47;;;15.22;79.79
9444;BME280;4760;42.148;24.754;2022-09-20T23:01:59;99651.28;;;15.16;78.74
9444;BME280;4760;42.148;24.754;2022-09-20T23:15:53;99653.06;;;14.92;81.58
9444;BME280;4760;42.148;24.754;2022-09-20T23:29:21;99638.47;;;14.77;85.04
